Latest Weather Observations for Canberra

IDN60901

Issued at 7:21 pm EST Tuesday 26 September 2017 (issued every 10 minutes, with the page automatically refreshed every 10 minutes)

About weather observations | Map of Canberra area stations | Latest observations for Canberra area | Other Formats
Station Details ID: 070351 Name: CANBERRA AIRPORT Lat: -35.31 Lon: 149.20 Height: 577.05 m
Data from the previous 72 hours. | See also: Recent months at Canberra
Date/Time
EST
Temp
°C
App
Temp
°C
Dew
Point
°C
Rel
Hum
%
Delta-T
°C
Wind Press
QNH
hPa
Press
MSL
hPa
Rain since
9am
mm
Dir  Spd
km/h
Gust
km/h
Spd
kts
Gust
kts
26/07:00pm 12.5 6.9 -3.3 33 6.3 NNE 17 22 9 12 1016.5 1016.6 0.0
26/06:30pm 13.2 7.5 -3.5 31 6.6 NNE 17 26 9 14 1016.2 1016.3 0.0
26/06:00pm 14.0 8.4 -3.3 30 7.0 N 17 26 9 14 1015.7 1015.8 0.0
26/05:30pm 15.7 9.2 -2.7 28 7.6 N 22 28 12 15 1015.5 1015.6 0.0
26/05:00pm 16.9 10.3 -3.2 25 8.3 N 22 28 12 15 1015.1 1015.2 0.0
26/04:30pm 17.8 11.3 -2.5 25 8.6 N 22 30 12 16 1014.9 1015.0 0.0
26/04:00pm 18.6 11.7 -2.3 24 9.0 N 24 33 13 18 1014.8 1014.9 0.0
26/03:30pm 18.3 11.9 -2.0 25 8.8 NNW 22 30 12 16 1014.7 1014.8 0.0
26/03:00pm 19.1 12.8 -0.8 26 8.9 NNW 22 33 12 18 1014.7 1014.8 0.0
26/02:30pm 19.0 13.0 -1.4 25 9.0 NNW 20 28 11 15 1014.6 1014.7 0.0
26/02:00pm 18.1 12.2 -2.2 25 8.7 NNW 19 28 10 15 1014.8 1014.9 0.0
26/01:30pm 17.7 12.5 -3.1 24 8.7 NNW 15 30 8 16 1014.9 1015.0 0.0
26/01:00pm 17.5 12.3 -2.7 25 8.5 N 15 26 8 14 1015.0 1015.1 0.0
26/12:30pm 17.4 12.4 -3.9 23 8.8 NNW 13 24 7 13 1015.2 1015.3 0.0
26/12:00pm 16.5 12.4 -3.0 26 8.1 NNW 9 19 5 10 1015.5 1015.6 0.0
26/11:30am 15.5 11.7 -3.9 26 7.8 WNW 7 11 4 6 1015.8 1015.9 0.0
26/11:00am 15.2 10.3 -3.2 28 7.5 NW 13 17 7 9 1016.2 1016.3 0.0
26/10:30am 13.9 9.3 -3.8 29 7.0 N 11 19 6 10 1016.6 1016.7 0.0
26/10:00am 13.5 8.2 -3.7 30 6.8 NW 15 20 8 11 1016.7 1016.8 0.0
26/09:30am 13.5 8.2 -3.7 30 6.8 W 15 20 8 11 1016.7 1016.8 0.0
26/09:00am 12.8 7.9 -3.0 33 6.3 W 13 19 7 10 1016.6 1016.7 0.0
26/08:30am 12.3 7.1 -2.7 35 6.0 WNW 15 22 8 12 1016.5 1016.6 0.0
26/08:00am 11.5 5.7 -1.6 40 5.3 W 19 26 10 14 1016.3 1016.4 0.0
26/07:30am 10.5 6.0 0.0 48 4.4 W 13 20 7 11 1015.9 1016.1 0.0
26/07:00am 9.2 4.2 1.4 58 3.3 NNW 17 20 9 11 1015.5 1015.6 0.0
26/06:30am 6.9 3.6 0.4 63 2.6 SSE 7 11 4 6 1015.2 1015.3 0.0
26/06:00am 6.3 1.1 0.4 66 2.4 NW 17 22 9 12 1014.8 1014.9 0.0
26/05:30am 6.8 1.3 0.5 64 2.6 N 19 24 10 13 1014.5 1014.6 0.0
26/05:00am 6.7 2.4 0.8 66 2.4 N 13 17 7 9 1014.1 1014.2 0.0
26/04:30am 6.5 1.8 0.8 67 2.3 NNE 15 17 8 9 1013.9 1014.0 0.0
26/04:00am 6.5 2.5 0.6 66 2.4 NNE 11 15 6 8 1013.8 1013.9 0.0
26/03:30am 4.4 0.3 -0.2 72 1.8 ENE 11 15 6 8 1013.5 1013.6 0.0
26/03:00am 7.6 3.4 1.5 65 2.6 WNW 13 17 7 9 1013.3 1013.4 0.0
26/02:30am 8.3 4.8 1.2 61 3.0 NNW 9 11 5 6 1013.3 1013.4 0.0
26/02:00am 8.1 4.6 1.5 63 2.8 NNE 9 11 5 6 1013.5 1013.6 0.0
26/01:30am 8.4 4.6 1.8 63 2.8 NNW 11 15 6 8 1013.5 1013.6 0.0
26/01:00am 8.6 4.3 1.1 59 3.2 NNW 13 20 7 11 1013.6 1013.7 0.0
26/12:30am 10.0 5.5 1.9 57 3.5 WNW 15 20 8 11 1013.5 1013.6 0.0
26/12:00am 10.4 5.5 1.8 55 3.7 W 17 28 9 15 1013.5 1013.6 0.0
 
Date/Time
EST
Temp
°C
App
Temp
°C
Dew
Point
°C
Rel
Hum
%
Delta-T
°C
Wind Press
QNH
hPa
Press
MSL
hPa
Rain since
9am
mm
Dir  Spd
km/h
Gust
km/h
Spd
kts
Gust
kts
25/11:30pm 10.6 6.5 2.4 57 3.6 WNW 13 22 7 12 1013.3 1013.4 0.0
25/11:00pm 10.7 5.3 2.3 56 3.7 WNW 20 30 11 16 1013.2 1013.3 0.0
25/10:30pm 10.9 5.5 2.2 55 3.8 W 20 32 11 17 1013.2 1013.3 0.0
25/10:00pm 11.2 5.4 2.5 55 3.9 W 22 30 12 16 1013.3 1013.4 0.0
25/09:30pm 11.1 5.7 2.4 55 3.9 W 20 28 11 15 1013.3 1013.4 0.0
25/09:00pm 11.2 6.4 2.5 55 3.9 W 17 22 9 12 1013.1 1013.2 0.0
25/08:30pm 11.4 6.6 2.7 55 3.9 W 17 26 9 14 1012.8 1012.8 0.0
25/08:00pm 11.2 7.6 2.8 56 3.8 W 11 17 6 9 1012.6 1012.6 0.0
25/07:30pm 11.3 7.0 3.1 57 3.7 WNW 15 22 8 12 1011.9 1012.0 0.0
25/07:00pm 11.7 5.9 2.5 53 4.1 WNW 22 33 12 18 1011.4 1011.4 0.0
25/06:30pm 11.7 6.4 3.0 55 3.9 WNW 20 28 11 15 1011.1 1011.1 0.0
25/06:00pm 11.9 6.9 3.4 56 3.9 WNW 19 24 10 13 1010.9 1010.9 0.0
25/05:30pm 12.7 7.5 3.4 53 4.3 W 20 28 11 15 1010.5 1010.6 0.0
25/05:00pm 14.0 7.2 2.9 47 5.1 W 28 37 15 20 1010.3 1010.4 0.0
25/04:30pm 14.5 7.1 1.8 42 5.7 W 30 46 16 25 1009.9 1009.9 0.0
25/04:00pm 15.8 8.9 2.6 41 6.1 W 28 37 15 20 1009.3 1009.3 0.0
25/03:30pm 15.5 7.1 1.6 39 6.3 WNW 35 50 19 27 1009.2 1009.2 0.0
25/03:00pm 15.5 7.2 2.3 41 6.1 WNW 35 48 19 26 1008.9 1008.9 0.0
25/02:30pm 15.7 6.9 1.4 38 6.5 WNW 37 50 20 27 1008.5 1008.6 0.0
25/02:00pm 16.0 7.0 0.2 34 7.0 W 37 48 20 26 1008.4 1008.4 0.0
25/01:30pm 17.4 9.3 1.0 33 7.5 W 33 48 18 26 1008.3 1008.3 0.0
25/01:00pm 15.5 7.3 0.1 35 6.8 W 33 46 18 25 1008.3 1008.3 0.0
25/12:30pm 17.3 8.9 1.3 34 7.3 W 35 48 19 26 1008.3 1008.3 0.0
25/12:00pm 16.5 9.0 1.4 36 6.9 W 30 48 16 26 1008.4 1008.4 0.0
25/11:54am 16.7 10.0 1.6 36 6.9 W 26 48 14 26 1008.5 1008.6 0.0
25/11:30am 15.4 7.1 1.9 40 6.2 W 35 46 19 25 1008.4 1008.4 0.0
25/11:00am 16.0 8.0 1.7 38 6.5 W 33 46 18 25 1008.4 1008.4 0.0
25/10:30am 15.4 8.6 2.9 43 5.8 WNW 28 39 15 21 1008.6 1008.7 0.0
25/10:00am 14.5 7.6 2.7 45 5.5 WNW 28 41 15 22 1008.9 1008.9 0.0
25/09:30am 13.7 6.3 2.0 45 5.3 WNW 30 43 16 23 1008.8 1008.8 0.0
25/09:00am 13.9 7.8 2.8 47 5.1 NW 24 35 13 19 1008.8 1008.8 0.0
25/08:30am 13.3 7.4 3.9 53 4.4 N 24 30 13 16 1008.5 1008.6 0.0
25/08:00am 11.9 5.5 3.4 56 3.9 N 26 33 14 18 1008.4 1008.4 0.0
25/07:30am 11.0 4.1 2.6 56 3.7 N 28 41 15 22 1008.1 1008.1 0.0
25/07:00am 10.3 3.7 1.9 56 3.7 N 26 33 14 18 1007.8 1007.8 0.0
25/06:30am 10.1 3.3 1.0 53 3.9 N 26 32 14 17 1007.3 1007.3 0.0
25/06:00am 9.5 3.4 0.4 53 3.8 N 22 30 12 16 1006.8 1006.8 0.0
25/05:30am 8.9 4.2 0.9 57 3.4 N 15 19 8 10 1006.7 1006.7 0.0
25/05:00am 8.6 4.2 0.6 57 3.3 N 13 17 7 9 1006.4 1006.4 0.0
25/04:30am 9.7 5.3 0.6 53 3.8 NNW 13 26 7 14 1006.3 1006.3 0.0
25/04:00am 10.8 5.3 0.8 50 4.3 NNW 19 28 10 15 1006.0 1006.0 0.0
25/03:30am 11.3 6.1 0.4 47 4.6 WNW 17 30 9 16 1005.9 1005.9 0.0
25/03:00am 11.7 6.5 0.2 45 4.9 WNW 17 28 9 15 1005.8 1005.8 0.0
25/02:30am 12.3 7.1 0.1 43 5.2 WNW 17 24 9 13 1005.6 1005.6 0.0
25/02:00am 12.2 6.5 -0.6 41 5.4 WNW 19 28 10 15 1005.6 1005.6 0.0
25/01:30am 12.8 6.6 -0.4 40 5.6 W 22 35 12 19 1005.8 1005.8 0.0
25/01:00am 12.8 7.5 -0.4 40 5.6 WNW 17 24 9 13 1005.8 1005.8 0.0
25/12:30am 12.9 7.2 -0.4 40 5.6 W 19 26 10 14 1005.8 1005.8 0.0
25/12:00am 13.4 7.4 -1.3 36 6.2 WNW 20 30 11 16 1005.9 1005.9 0.0
 
Date/Time
EST
Temp
°C
App
Temp
°C
Dew
Point
°C
Rel
Hum
%
Delta-T
°C
Wind Press
QNH
hPa
Press
MSL
hPa
Rain since
9am
mm
Dir  Spd
km/h
Gust
km/h
Spd
kts
Gust
kts
24/11:30pm 14.3 7.5 -1.7 33 6.7 WNW 24 32 13 17 1005.9 1005.9 0.0
24/11:00pm 14.0 7.6 -2.0 33 6.7 WNW 22 32 12 17 1005.9 1005.9 0.0
24/10:30pm 12.8 7.1 -0.8 39 5.7 NW 19 24 10 13 1005.8 1005.8 0.0
24/10:00pm 12.8 7.2 -0.1 41 5.5 NW 19 20 10 11 1005.8 1005.8 0.0
24/09:30pm 14.3 8.6 -0.5 36 6.4 NW 19 24 10 13 1005.5 1005.4 0.0
24/09:00pm 15.5 8.9 -0.7 33 7.0 NW 24 30 13 16 1005.3 1005.2 0.0
24/08:30pm 15.8 8.4 -0.4 33 7.1 NW 28 33 15 18 1005.2 1005.1 0.0
24/08:00pm 16.0 8.7 -0.2 33 7.1 NW 28 32 15 17 1004.8 1004.8 0.0
24/07:30pm 16.1 9.9 -0.2 33 7.2 NW 22 28 12 15 1004.5 1004.5 0.0
24/07:00pm 16.3 10.1 0.0 33 7.2 NW 22 28 12 15 1004.2 1004.2 0.0
24/06:30pm 16.9 10.7 -0.3 31 7.6 NW 22 30 12 16 1003.9 1003.8 0.0
24/06:00pm 17.2 9.4 -0.5 30 7.8 NW 30 39 16 21 1003.7 1003.6 0.0
24/05:30pm 18.3 10.1 -1.0 27 8.5 WNW 32 50 17 27 1003.4 1003.3 0.0
24/05:13pm 18.8 10.6 -1.1 26 8.8 WNW 32 50 17 27 1003.1 1003.1 0.0
24/05:11pm 18.9 10.6 -0.5 27 8.7 WNW 33 50 18 27 1003.3 1003.2 0.0
24/05:00pm 19.0 10.2 -0.9 26 8.9 WNW 35 50 19 27 1003.1 1003.1 0.0
24/04:30pm 19.5 10.7 -1.0 25 9.1 WNW 35 56 19 30 1002.9 1002.9 0.0
24/04:00pm 19.5 10.0 -0.5 26 9.0 WNW 39 57 21 31 1002.8 1002.8 0.0
24/03:30pm 20.0 11.3 -0.6 25 9.3 WNW 35 57 19 31 1002.7 1002.7 0.0
24/03:00pm 19.6 10.2 0.1 27 8.9 WNW 39 57 21 31 1002.9 1002.9 0.0
24/02:35pm 19.6 10.5 -0.9 25 9.1 WNW 37 80 20 43 1003.0 1003.0 0.0
24/02:32pm 20.8 11.9 0.6 26 9.4 WNW 37 56 20 30 1003.1 1003.1 0.0
24/02:30pm 20.7 11.3 0.0 25 9.5 WNW 39 56 21 30 1003.1 1003.1 0.0
24/02:07pm 18.8 9.4 -0.1 28 8.5 WNW 39 57 21 31 1003.5 1003.4 0.0
24/02:00pm 20.5 11.5 0.4 26 9.3 WNW 37 54 20 29 1003.4 1003.3 0.0
24/01:30pm 19.7 10.3 0.2 27 8.9 WNW 39 57 21 31 1003.6 1003.5 0.0
24/01:02pm 19.5 10.2 0.5 28 8.7 WNW 39 57 21 31 1003.9 1003.8 0.0
24/01:00pm 19.9 10.6 0.9 28 8.9 NW 39 57 21 31 1003.8 1003.7 0.0
24/12:59pm 19.7 10.5 1.2 29 8.6 NW 39 57 21 31 1003.9 1003.8 0.0
24/12:58pm 19.8 10.6 1.3 29 8.6 NW 39 57 21 31 1004.0 1003.9 0.0
24/12:42pm 19.2 9.5 0.8 29 8.5 NW 41 61 22 33 1004.1 1004.1 0.0
24/12:35pm 19.6 11.1 0.6 28 8.7 WNW 35 54 19 29 1004.1 1004.1 0.0
24/12:30pm 18.9 9.5 0.0 28 8.5 WNW 39 54 21 29 1004.2 1004.2 0.0
24/12:29pm 18.9 9.5 0.0 28 8.5 WNW 39 54 21 29 1004.2 1004.2 0.0
24/12:00pm 18.7 10.1 0.3 29 8.4 NW 35 46 19 25 1004.6 1004.6 0.0
24/11:56am 18.5 9.9 0.2 29 8.3 NW 35 54 19 29 1004.8 1004.8 0.0
24/11:46am 18.0 9.3 -0.3 29 8.2 NW 35 50 19 27 1004.8 1004.8 0.0
24/11:30am 18.2 10.3 1.3 32 7.8 NW 32 48 17 26 1005.3 1005.2 0.0
24/11:00am 18.2 8.9 0.4 30 8.1 NW 39 50 21 27 1005.3 1005.2 0.0
24/10:30am 16.7 8.2 0.8 34 7.2 NW 35 41 19 22 1005.6 1005.6 0.0
24/10:00am 16.2 8.3 1.1 36 6.8 NW 32 41 17 22 1006.1 1006.1 0.0
24/09:30am 15.7 8.3 3.8 45 5.7 NW 32 46 17 25 1006.5 1006.5 0.0
24/09:00am 14.6 7.3 5.4 54 4.5 NW 33 41 18 22 1007.1 1007.1 0.0
24/08:30am 14.9 8.2 5.7 54 4.5 NW 30 37 16 20 1007.2 1007.2 0.0
24/08:00am 14.3 7.1 5.1 54 4.5 NW 32 37 17 20 1006.5 1006.5 0.0
24/07:30am 14.5 6.9 3.9 49 5.0 NW 33 43 18 23 1006.2 1006.2 0.0
24/07:00am 13.1 6.5 4.3 55 4.2 NNW 28 32 15 17 1005.4 1005.3 0.0
24/06:30am 12.9 7.5 4.6 57 3.9 NNW 22 28 12 15 1004.6 1004.6 0.0
24/06:00am 13.2 7.5 4.9 57 4.0 NNW 24 30 13 16 1005.1 1005.0 0.0
24/05:30am 13.5 7.9 3.6 51 4.6 NNW 22 30 12 16 1004.9 1004.9 0.0
24/05:00am 14.6 8.0 2.2 43 5.7 NW 26 33 14 18 1004.7 1004.7 0.0
24/04:30am 15.0 7.8 0.8 38 6.3 NW 28 33 15 18 1004.3 1004.3 0.0
24/04:00am 16.5 9.9 -0.2 32 7.4 NW 24 32 13 17 1003.5 1003.4 0.0
24/03:30am 17.1 9.8 -0.1 31 7.6 NW 28 32 15 17 1003.0 1003.0 0.0
24/03:00am 17.1 11.3 2.3 37 6.9 NW 22 28 12 15 1002.0 1001.9 0.0
24/02:30am 18.0 12.9 4.2 40 6.7 NW 20 30 11 16 1001.7 1001.6 0.0
24/02:00am 18.6 13.6 4.4 39 7.0 WNW 20 28 11 15 1001.5 1001.4 0.0
24/01:30am 19.7 14.0 2.6 32 8.2 NW 22 28 12 15 1001.1 1001.1 0.0
24/01:00am 21.2 15.0 2.0 28 9.2 NW 24 30 13 16 1000.8 1000.7 0.0
24/12:30am 22.1 16.6 1.7 26 9.8 NNW 20 26 11 14 1000.7 1000.6 0.0
24/12:00am 22.6 17.2 1.0 24 10.3 N 19 22 10 12 1000.7 1000.6 0.0
 
Date/Time
EST
Temp
°C
App
Temp
°C
Dew
Point
°C
Rel
Hum
%
Delta-T
°C
Wind Press
QNH
hPa
Press
MSL
hPa
Rain since
9am
mm
Dir  Spd
km/h
Gust
km/h
Spd
kts
Gust
kts
23/11:30pm 22.6 17.0 1.0 24 10.2 NW 20 26 11 14 1000.8 1000.7 0.0
23/11:00pm 22.9 17.8 0.7 23 10.6 NW 17 20 9 11 1000.6 1000.5 0.0
23/10:30pm 22.3 17.2 0.8 24 10.1 NW 17 22 9 12 1000.6 1000.5 0.0
23/10:00pm 21.6 17.7 1.3 26 9.7 NNW 11 15 6 8 1000.6 1000.5 0.0
23/09:30pm 19.9 16.9 0.9 28 8.8 W 6 11 3 6 1000.5 1000.4 0.0
23/09:00pm 22.2 18.5 0.1 23 10.3 E 9 15 5 8 1000.8 1000.7 0.0
23/08:30pm 24.2 19.6 -0.9 19 11.6 NNW 13 19 7 10 1001.0 1000.9 0.0
23/08:00pm 23.8 17.5 -1.2 19 11.6 NW 22 30 12 16 1000.4 1000.3 0.0
23/07:30pm 23.9 18.9 -1.1 19 11.5 N 15 20 8 11 1000.5 1000.4 0.0

Latest Capital City Observations: Canberra | Sydney | Melbourne | Brisbane | Adelaide | Perth | Hobart | Darwin

Other Formats:

Comma delimited format used in spreadsheet applications
http://www.bom.gov.au/fwo/IDN60903/IDN60903.94926.axf

JavaScript Object Notation format (JSON) in row-major order
http://www.bom.gov.au/fwo/IDN60903/IDN60903.94926.json